createdAt,value
2018-02-11T00:00:54.357Z,34.40
2018-02-11T00:03:21.922Z,34.60
2018-02-11T00:05:52.865Z,34.00
2018-02-11T00:08:20.329Z,33.50
2018-02-11T10:31:05.302Z,36.80
2018-02-11T10:33:32.861Z,36.70
2018-02-11T10:36:00.443Z,37.70
2018-02-11T10:38:27.966Z,37.30
2018-02-11T10:40:55.468Z,37.00
2018-02-11T10:43:24.496Z,36.70
2018-02-11T10:45:52.872Z,38.40
2018-02-11T10:48:20.392Z,38.40
2018-02-11T10:50:47.901Z,36.80
2018-02-11T10:53:16.185Z,37.30
2018-02-11T10:55:44.482Z,41.40
2018-02-11T10:58:11.986Z,43.60
2018-02-11T11:00:39.472Z,36.60
2018-02-11T11:03:07.764Z,36.70
2018-02-11T11:05:35.226Z,36.70
2018-02-11T11:08:02.832Z,36.80
2018-02-11T11:10:30.336Z,38.30
2018-02-11T11:12:58.645Z,37.10
2018-02-11T11:15:27.172Z,37.10
2018-02-11T11:17:55.489Z,37.90
2018-02-11T11:20:23.060Z,37.30
2018-02-11T11:22:50.618Z,37.10
2018-02-11T11:25:18.114Z,37.00
2018-02-11T11:27:45.729Z,37.80
2018-02-11T11:30:13.279Z,38.40
2018-02-11T11:32:41.165Z,36.30
2018-02-11T11:35:09.476Z,36.30
2018-02-11T11:37:37.112Z,36.20
2018-02-11T11:40:04.738Z,36.30
2018-02-11T11:42:32.977Z,37.10
2018-02-11T11:45:00.487Z,37.00
2018-02-11T11:47:28.634Z,38.10
2018-02-11T11:49:56.951Z,36.40
2018-02-11T11:52:24.513Z,36.30
2018-02-11T11:54:52.097Z,36.00
2018-02-11T11:57:19.725Z,36.20
2018-02-11T11:59:47.320Z,35.90
2018-02-11T12:02:14.937Z,35.80
2018-02-11T12:04:42.603Z,35.60
2018-02-11T12:07:10.856Z,36.70
2018-02-11T12:09:39.135Z,37.50
2018-02-11T12:12:07.458Z,38.10
2018-02-11T12:14:35.022Z,36.20
2018-02-11T12:17:03.311Z,37.10
2018-02-11T12:19:30.951Z,38.60
2018-02-11T12:21:58.602Z,36.40
2018-02-11T12:24:26.254Z,36.80
2018-02-11T12:26:53.804Z,36.30
2018-02-11T12:29:22.073Z,36.50
2018-02-11T12:31:49.606Z,36.40
2018-02-11T12:34:17.250Z,38.30
2018-02-11T12:36:44.878Z,38.50
2018-02-11T12:39:12.394Z,38.20
2018-02-11T12:41:40.764Z,36.80
2018-02-11T12:44:08.271Z,36.80
2018-02-11T12:46:35.837Z,37.20
2018-02-11T12:49:04.152Z,37.90
2018-02-11T12:51:31.660Z,36.70
2018-02-11T12:53:59.231Z,36.70
2018-02-11T12:56:26.726Z,37.20
2018-02-11T12:58:54.279Z,36.50
2018-02-11T13:01:21.766Z,37.10
2018-02-11T13:03:49.373Z,36.70
2018-02-11T13:06:16.853Z,37.40
2018-02-11T13:08:54.220Z,36.30
2018-02-11T13:11:21.840Z,36.60
2018-02-11T13:13:49.550Z,37.50
2018-02-11T13:16:17.216Z,38.20
2018-02-11T13:18:44.820Z,38.90
2018-02-11T13:21:12.348Z,36.70
2018-02-11T13:23:39.888Z,36.20
2018-02-11T13:26:07.469Z,38.30
2018-02-11T13:28:35.115Z,36.80
2018-02-11T13:31:02.713Z,36.80
2018-02-11T13:33:30.278Z,37.10
2018-02-11T13:35:57.804Z,36.10
2018-02-11T13:38:26.674Z,34.10
2018-02-11T13:40:54.392Z,34.00
2018-02-11T13:43:21.923Z,35.90
2018-02-11T13:45:49.563Z,37.30
2018-02-11T13:48:18.448Z,35.50
2018-02-11T13:50:48.989Z,35.40
2018-02-11T13:53:20.912Z,37.30
2018-02-11T13:55:59.232Z,37.70
2018-02-11T13:58:27.546Z,35.80
2018-02-11T14:00:55.523Z,36.50
2018-02-11T14:03:23.677Z,35.80
2018-02-11T14:05:51.352Z,36.70
2018-02-11T14:08:19.366Z,37.80
2018-02-11T14:10:48.338Z,36.30
2018-02-11T14:13:16.635Z,35.70
2018-02-11T14:15:44.211Z,35.70
2018-02-11T14:18:12.565Z,35.60
2018-02-11T14:20:40.075Z,35.60
2018-02-11T14:23:07.844Z,36.60
2018-02-11T14:25:35.350Z,35.80
2018-02-11T14:28:02.855Z,37.70
2018-02-11T14:30:30.396Z,35.10
2018-02-11T14:32:58.678Z,34.30
2018-02-11T14:35:26.963Z,34.90
2018-02-11T14:37:55.214Z,36.90
2018-02-11T14:40:23.528Z,34.90
2018-02-11T14:42:51.908Z,34.60
2018-02-11T14:45:19.488Z,35.40
2018-02-11T14:47:47.115Z,35.00
2018-02-11T14:50:14.662Z,35.30
2018-02-11T14:52:43.002Z,35.10
2018-02-11T14:55:11.358Z,35.00
2018-02-11T14:57:38.930Z,34.70
2018-02-11T15:00:06.433Z,34.70
2018-02-11T15:02:34.301Z,34.90
2018-02-11T15:05:02.629Z,34.90
2018-02-11T15:07:30.162Z,35.20
2018-02-11T15:09:57.728Z,35.70
2018-02-11T15:12:25.416Z,36.20
2018-02-11T15:14:52.904Z,35.60
2018-02-11T15:17:20.530Z,35.30
2018-02-11T15:19:48.086Z,34.90
2018-02-11T15:22:15.588Z,35.00
2018-02-11T15:24:43.072Z,35.30
2018-02-11T15:27:10.604Z,35.20
2018-02-11T15:29:38.904Z,35.50
2018-02-11T15:32:07.531Z,35.20
2018-02-11T15:34:35.065Z,35.10
2018-02-11T15:37:02.632Z,34.90
2018-02-11T15:39:30.161Z,35.30
2018-02-11T15:41:57.704Z,35.50
2018-02-11T15:44:25.214Z,35.50
2018-02-11T15:46:52.734Z,36.00
2018-02-11T15:49:20.272Z,35.30
2018-02-11T15:51:48.604Z,36.60
2018-02-11T15:54:16.140Z,36.50
2018-02-11T15:56:43.816Z,35.30
2018-02-11T15:59:11.415Z,34.70
2018-02-11T16:01:38.885Z,36.90
2018-02-11T16:04:06.372Z,34.80
2018-02-11T16:06:33.992Z,35.70
2018-02-11T16:09:01.479Z,35.10
2018-02-11T16:11:29.013Z,35.00
2018-02-11T16:13:56.574Z,35.10
2018-02-11T16:16:25.000Z,35.30
2018-02-11T16:18:53.616Z,35.20
2018-02-11T16:21:22.295Z,35.30
2018-02-11T16:23:49.989Z,36.30
2018-02-11T16:26:18.536Z,35.50
2018-02-11T16:28:48.273Z,35.60
2018-02-11T16:31:16.625Z,35.40
2018-02-11T16:33:44.776Z,35.90
2018-02-11T16:36:12.296Z,35.80
2018-02-11T16:38:39.818Z,34.80
2018-02-11T16:41:07.403Z,35.10
2018-02-11T16:43:34.999Z,34.50
2018-02-11T16:46:02.606Z,34.40
2018-02-11T16:48:30.377Z,34.20
2018-02-11T16:50:58.956Z,34.90
2018-02-11T16:53:26.617Z,35.10
2018-02-11T16:55:54.123Z,35.20
2018-02-11T16:58:23.212Z,34.50
2018-02-11T17:00:50.892Z,34.50
2018-02-11T17:03:18.537Z,34.50
2018-02-11T17:05:46.152Z,34.60
2018-02-11T17:08:16.945Z,34.60
2018-02-11T17:10:44.877Z,34.60
2018-02-11T17:13:12.762Z,34.60
2018-02-11T17:15:41.308Z,34.80
2018-02-11T17:18:09.009Z,34.70
2018-02-11T17:20:38.325Z,34.90
2018-02-11T17:23:11.758Z,34.90
2018-02-11T17:25:39.516Z,35.00
2018-02-11T17:28:07.299Z,35.00
2018-02-11T17:30:35.672Z,35.20
2018-02-11T17:33:07.863Z,35.30
2018-02-11T17:35:40.323Z,35.20
2018-02-11T17:38:12.469Z,35.30
2018-02-11T17:40:54.601Z,35.40
2018-02-11T17:43:28.387Z,35.40
2018-02-11T17:46:00.628Z,35.50
2018-02-11T17:48:28.653Z,35.50
2018-02-11T17:51:00.102Z,35.60
2018-02-11T17:53:32.560Z,35.60
2018-02-11T17:56:00.147Z,35.60
2018-02-11T17:58:28.647Z,35.70
2018-02-11T18:00:56.231Z,35.70
2018-02-11T18:03:33.085Z,36.40
2018-02-11T18:06:01.224Z,35.90
2018-02-11T18:08:29.636Z,35.90
2018-02-11T18:10:57.677Z,35.90
2018-02-11T18:13:25.169Z,36.00
2018-02-11T18:15:52.788Z,36.30
2018-02-11T18:18:21.109Z,36.20
2018-02-11T18:20:48.712Z,36.20
2018-02-11T18:23:16.578Z,36.30
2018-02-11T18:25:45.174Z,36.40
2018-02-11T18:28:13.789Z,36.40
2018-02-11T18:30:41.409Z,36.30
2018-02-11T18:33:09.143Z,36.40
2018-02-11T18:35:37.591Z,36.30
2018-02-11T18:38:05.139Z,36.30
2018-02-11T18:40:32.716Z,36.30
2018-02-11T18:43:00.279Z,36.40
2018-02-11T18:45:27.756Z,36.80
2018-02-11T18:47:55.336Z,36.30
2018-02-11T18:50:23.625Z,36.00
2018-02-11T18:52:51.244Z,36.00
2018-02-11T18:55:19.653Z,35.60
2018-02-11T18:57:47.993Z,35.50
2018-02-11T19:00:15.484Z,35.50
2018-02-11T19:02:50.049Z,36.10
2018-02-11T19:05:20.133Z,35.50
2018-02-11T19:07:51.760Z,35.50
2018-02-11T19:10:31.203Z,35.40
2018-02-11T19:13:05.347Z,35.40
2018-02-11T19:18:14.425Z,36.10
2018-02-11T19:20:44.811Z,35.40
2018-02-11T19:23:18.738Z,35.30
2018-02-11T19:25:46.674Z,35.30
2018-02-11T19:28:14.985Z,35.20
2018-02-11T19:30:43.695Z,35.30
2018-02-11T19:33:11.417Z,35.20
2018-02-11T19:35:39.044Z,35.20
2018-02-11T19:38:06.745Z,35.20
2018-02-11T19:40:40.346Z,35.30
2018-02-11T19:43:31.153Z,35.20
2018-02-11T19:46:02.514Z,35.20
2018-02-11T19:48:30.021Z,36.30
2018-02-11T19:50:57.615Z,35.30
2018-02-11T19:53:25.153Z,35.20
2018-02-11T19:55:52.657Z,38.00
2018-02-11T19:58:20.952Z,35.20
2018-02-11T20:00:48.828Z,35.10
2018-02-11T20:03:16.334Z,35.10
2018-02-11T20:05:44.023Z,35.10
2018-02-11T20:08:11.724Z,35.00
2018-02-11T20:10:39.532Z,35.00
2018-02-11T20:13:07.820Z,35.10
2018-02-11T20:15:36.102Z,35.60
2018-02-11T20:18:04.393Z,35.20
2018-02-11T20:20:31.884Z,35.20
2018-02-11T20:22:59.461Z,35.90
2018-02-11T20:25:26.545Z,35.10
2018-02-11T20:27:53.749Z,35.40
2018-02-11T20:30:20.812Z,35.10
2018-02-11T20:32:47.934Z,35.10
2018-02-11T20:35:15.018Z,35.20
2018-02-11T20:37:42.873Z,35.80
2018-02-11T20:40:09.994Z,35.30
2018-02-11T20:42:37.071Z,35.50
2018-02-11T20:45:04.091Z,35.40
2018-02-11T20:47:31.153Z,35.60
2018-02-11T20:49:59.116Z,35.70
2018-02-11T20:52:26.530Z,35.70
2018-02-11T20:54:54.596Z,35.90
2018-02-11T20:57:21.784Z,35.90
2018-02-11T21:00:02.047Z,36.10
2018-02-11T21:02:34.509Z,36.10
2018-02-11T21:05:06.874Z,36.20
2018-02-11T21:07:34.949Z,36.20
2018-02-11T21:10:12.410Z,36.20
2018-02-11T21:12:39.713Z,36.20
2018-02-11T21:15:07.179Z,36.20
2018-02-11T21:17:34.603Z,36.20
2018-02-11T21:20:02.205Z,36.20
2018-02-11T21:22:40.308Z,36.20
2018-02-11T21:25:24.156Z,36.20
2018-02-11T21:27:57.503Z,36.20
2018-02-11T21:30:26.320Z,36.20
2018-02-11T21:32:54.280Z,36.20
2018-02-11T21:35:23.495Z,36.20
2018-02-11T21:38:08.130Z,36.20
2018-02-11T21:40:47.241Z,36.20
2018-02-11T21:43:14.582Z,36.30
2018-02-11T21:45:46.686Z,36.30
2018-02-11T21:48:15.259Z,36.20
2018-02-11T21:54:00.880Z,36.10
2018-02-11T21:56:45.159Z,36.30
2018-02-11T21:59:12.274Z,36.40
2018-02-11T22:01:39.394Z,36.40
2018-02-11T22:04:07.252Z,36.40
2018-02-11T22:06:35.120Z,36.40
2018-02-11T22:09:03.173Z,36.40
2018-02-11T22:11:30.342Z,36.40
2018-02-11T22:13:57.544Z,36.40
2018-02-11T22:16:28.495Z,36.40
2018-02-11T22:18:55.666Z,36.40
2018-02-11T22:21:36.087Z,36.40
2018-02-11T22:24:11.682Z,36.40
2018-02-11T22:26:40.185Z,36.50
2018-02-11T22:32:21.407Z,36.50
2018-02-11T22:34:49.672Z,36.60
2018-02-11T22:37:17.291Z,36.50
2018-02-11T22:39:48.081Z,36.60
2018-02-11T22:42:15.518Z,36.70
